Gualala, CA

6:16 PM PST on December 17, 2014 (GMT -0800)
Ocean Ridge | Change Station
CLOSE
Current Station
Personal Weather Station
Location: Gualala, CA
Elevation: 900 ft
Nearby Weather Stations

Elev 900 ft 38.80 °N, 123.53 °W | Updated 35 seconds ago

Rain
Rain
46.6 °F
Feels Like 47 °F
N
0.0
Wind Variable Wind from South
Gusts 0.7 mph

Today
High -- | Low -- °F
--% Chance of Precip.
Yesterday
High -- | Low -- °F
Precip. -- in
7:26 AM 4:54 PM
Waning Crescent, 18% visible
Pressure 30.00 in
Visibility 8.0 miles
Clouds Few 1500 ft
Few 2300 ft
Overcast 5000 ft
Windchill 47 °F
Dew Point 44 °F
Humidity 92%
Rainfall 2.86 in
Snow Depth Not available.
UV 0 out of 12
Pollen 1.30 out of 12
Air Quality Not available.
Flu Activity Not available.
METAR KUKI 180156Z AUTO 18003KT 8SM -RA FEW015 FEW023 OVC050 09/07 A3001 RMK AO2 SLP158 P0008 T00940072

More Conditions Fewer Conditions

Pressure 30.00 in
Visibility 8.0 miles
Clouds Few 1500 ft
Few 2300 ft
Overcast 5000 ft
Windchill 47 °F
Dew Point 44 °F
Humidity 92%
Rainfall 2.86 in
Snow Depth Not available.
UV 0 out of 12
Pollen 1.30 out of 12
Air Quality Not available.
Flu Activity Not available.
METAR KUKI 180156Z AUTO 18003KT 8SM -RA FEW015 FEW023 OVC050 09/07 A3001 RMK AO2 SLP158 P0008 T00940072

More Conditions Fewer Conditions

10-Day Weather Forecast

Almanac

Astronomy

Dec. 17, 2014 Rise Set
Actual Time
Civil Twilight
Nautical Twilight
Astronomical Twilight
Moon
Length of Visible Light
Length of Day
Tomorrow will be .
, % of the Moon is Illuminated

Today's Extremes

State Highs State Lows

Community

WunderPhotos

Upload Photos

1,778,859 photos uploaded!

WunderBlogs® & News

Nearby

Air Quality

  Air Quality AQ Index Pollutant
Not available.

Snow Depth

Station Depth Elevation

Earthquake Activity

City Distance Mag. Time & Date
Minimum magnitude displayed is 2.5.

Coastal Water Temperatures

Place Temperature

Nearby Weather Stations